PWSweather.com
Personal Weather Stations
Station Observations
EW7135
Hopkinton, MA 01748

Hopkinton, MA 01748

Lat: 42.2281651, Lon: -71.54263960000003

Elevation: 354

Station Type: Davis Pro 2

Latest ConditionsUpdated 8:00:01 AM EDT Sunday, Oct 22, 2017
Currently Today's Max Today's Min Today's Average
Temperature 45.5°F7.5°C 51.3°F10.7°C 45.0°F7.2°C 47.3°F8.5°C
Dew Point 44.2°F6.8°C 47.3°F8.5°C 43.5°F6.4°C 45.0°F7.2°C
Winds Calm Calm Calm Calm - Calm Calm
Wind Gusts -- -- - -
Humidity 95% 95% 86% 92%
Pressure 30.45 in1031.2 mb 30.45 in1031.2 mb 30.38 in1028.8 mb -
Hour Temp Dew Point Humidity Winds Wind Gusts Pressure Precip Precip Rate Daily Precip Total
08:00 AM 45.5°F7.5°C 44.2°F6.8°C 95% Calm Calm -- 30.45 in1031.2 mb 0.00 in0.0 mm 0.00 in0.0 mm 0.00 in0.0 mm
07:45 AM 45.0°F7.2°C 43.7°F6.5°C 95% Calm Calm -- 30.44 in1030.8 mb 0.00 in0.0 mm 0.00 in0.0 mm 0.00 in0.0 mm
07:30 AM 45.1°F7.3°C 43.5°F6.4°C 94% Calm Calm -- 30.43 in1030.5 mb 0.00 in0.0 mm 0.00 in0.0 mm 0.00 in0.0 mm
07:15 AM 45.3°F7.4°C 43.7°F6.5°C 94% Calm Calm -- 30.43 in1030.5 mb 0.00 in0.0 mm 0.00 in0.0 mm 0.00 in0.0 mm
07:00 AM 45.5°F7.5°C 43.9°F6.6°C 94% Calm Calm -- 30.42 in1030.1 mb 0.00 in0.0 mm 0.00 in0.0 mm 0.00 in0.0 mm
06:45 AM 45.8°F7.7°C 44.2°F6.8°C 94% Calm Calm -- 30.42 in1030.1 mb 0.00 in0.0 mm 0.00 in0.0 mm 0.00 in0.0 mm
06:30 AM 46.1°F7.8°C 44.5°F6.9°C 94% Calm Calm -- 30.42 in1030.1 mb 0.00 in0.0 mm 0.00 in0.0 mm 0.00 in0.0 mm
06:15 AM 46.3°F7.9°C 44.4°F6.9°C 93% Calm Calm -- 30.41 in1029.8 mb 0.00 in0.0 mm 0.00 in0.0 mm 0.00 in0.0 mm
06:00 AM 46.4°F8.0°C 44.5°F6.9°C 93% Calm Calm -- 30.41 in1029.8 mb 0.00 in0.0 mm 0.00 in0.0 mm 0.00 in0.0 mm
05:45 AM 46.5°F8.1°C 44.6°F7.0°C 93% Calm Calm -- 30.41 in1029.8 mb 0.00 in0.0 mm 0.00 in0.0 mm 0.00 in0.0 mm
05:30 AM 46.5°F8.1°C 44.6°F7.0°C 93% Calm Calm -- 30.40 in1029.5 mb 0.00 in0.0 mm 0.00 in0.0 mm 0.00 in0.0 mm
05:15 AM 46.8°F8.2°C 44.9°F7.2°C 93% Calm Calm -- 30.40 in1029.5 mb 0.00 in0.0 mm 0.00 in0.0 mm 0.00 in0.0 mm
05:00 AM 46.9°F8.3°C 45.0°F7.2°C 93% Calm Calm -- 30.40 in1029.5 mb 0.00 in0.0 mm 0.00 in0.0 mm 0.00 in0.0 mm
04:45 AM 46.8°F8.2°C 44.9°F7.2°C 93% Calm Calm -- 30.39 in1029.1 mb 0.00 in0.0 mm 0.00 in0.0 mm 0.00 in0.0 mm
04:30 AM 46.8°F8.2°C 44.9°F7.2°C 93% Calm Calm -- 30.39 in1029.1 mb 0.00 in0.0 mm 0.00 in0.0 mm 0.00 in0.0 mm
04:15 AM 46.7°F8.2°C 44.5°F6.9°C 92% Calm Calm -- 30.39 in1029.1 mb 0.00 in0.0 mm 0.00 in0.0 mm 0.00 in0.0 mm
04:00 AM 46.8°F8.2°C 44.6°F7.0°C 92% Calm Calm -- 30.39 in1029.1 mb 0.00 in0.0 mm 0.00 in0.0 mm 0.00 in0.0 mm
03:45 AM 46.7°F8.2°C 44.8°F7.1°C 93% Calm Calm -- 30.38 in1028.8 mb 0.00 in0.0 mm 0.00 in0.0 mm 0.00 in0.0 mm
03:30 AM 46.7°F8.2°C 44.5°F6.9°C 92% Calm Calm -- 30.39 in1029.1 mb 0.00 in0.0 mm 0.00 in0.0 mm 0.00 in0.0 mm
03:15 AM 46.7°F8.2°C 44.5°F6.9°C 92% Calm Calm -- 30.38 in1028.8 mb 0.00 in0.0 mm 0.00 in0.0 mm 0.00 in0.0 mm
03:00 AM 46.9°F8.3°C 44.7°F7.1°C 92% Calm Calm -- 30.38 in1028.8 mb 0.00 in0.0 mm 0.00 in0.0 mm 0.00 in0.0 mm
02:45 AM 47.2°F8.4°C 44.7°F7.1°C 91% Calm Calm -- 30.38 in1028.8 mb 0.00 in0.0 mm 0.00 in0.0 mm 0.00 in0.0 mm
02:30 AM 47.4°F8.6°C 44.9°F7.2°C 91% Calm Calm -- 30.38 in1028.8 mb 0.00 in0.0 mm 0.00 in0.0 mm 0.00 in0.0 mm
02:15 AM 47.8°F8.8°C 45.0°F7.2°C 90% Calm Calm -- 30.38 in1028.8 mb 0.00 in0.0 mm 0.00 in0.0 mm 0.00 in0.0 mm
02:00 AM 48.1°F8.9°C 45.3°F7.4°C 90% Calm Calm -- 30.38 in1028.8 mb 0.00 in0.0 mm 0.00 in0.0 mm 0.00 in0.0 mm
01:45 AM 48.5°F9.2°C 45.7°F7.6°C 90% Calm Calm -- 30.38 in1028.8 mb 0.00 in0.0 mm 0.00 in0.0 mm 0.00 in0.0 mm
01:30 AM 48.9°F9.4°C 46.1°F7.8°C 90% Calm Calm -- 30.38 in1028.8 mb 0.00 in0.0 mm 0.00 in0.0 mm 0.00 in0.0 mm
01:15 AM 49.2°F9.6°C 46.1°F7.8°C 89% Calm Calm -- 30.38 in1028.8 mb 0.00 in0.0 mm 0.00 in0.0 mm 0.00 in0.0 mm
01:00 AM 49.7°F9.8°C 46.6°F8.1°C 89% Calm Calm -- 30.38 in1028.8 mb 0.00 in0.0 mm 0.00 in0.0 mm 0.00 in0.0 mm
12:45 AM 50.1°F10.1°C 46.7°F8.2°C 88% Calm Calm -- 30.38 in1028.8 mb 0.00 in0.0 mm 0.00 in0.0 mm 0.00 in0.0 mm
12:30 AM 50.5°F10.3°C 46.8°F8.2°C 87% Calm Calm -- 30.38 in1028.8 mb 0.00 in0.0 mm 0.00 in0.0 mm 0.00 in0.0 mm
12:15 AM 50.8°F10.4°C 46.8°F8.2°C 86% Calm Calm -- 30.38 in1028.8 mb 0.00 in0.0 mm 0.00 in0.0 mm 0.00 in0.0 mm
12:00 AM 51.3°F10.7°C 47.3°F8.5°C 86% Calm Calm -- 30.38 in1028.8 mb 0.00 in0.0 mm 0.00 in0.0 mm 0.00 in0.0 mm